Hub


Voltar

 INFORMAÇÕES METEOROLÓGICAS

METAR FOR LIMC


ADDS - METARS form results

(1903 UTC 23 April 2019)
Data provider http://aviationweather.gov/metar/data/
 
METAR text: LIMC 231850Z 11006KT 7000 RA BKN008 13/12 Q1006 NOSIG
Conditions at: LIMC (MILANO/MALPENSA , IT) observed 1850 UTC 23 April 2019
Temperature: 13.0°C (55°F)
Dewpoint: 12.0°C (54°F) [RH = 94%]
Pressure (altimeter): 29.70 inches Hg (1006.0 mb)
Winds: from the ESE (110 degrees) at 7 MPH (6 knots; 3.1 m/s)
Visibility: 4 miles ( 7 km)
Ceiling: 800 feet AGL
Clouds: broken clouds at 800 feet AGL
Weather: RA  (moderate rain)

METAR text: LIMC 231820Z 10006KT 070V130 7000 RA BKN009 13/12 Q1005 NOSIG
Conditions at: LIMC (MILANO/MALPENSA , IT) observed 1820 UTC 23 April 2019
Temperature: 13.0°C (55°F)
Dewpoint: 12.0°C (54°F) [RH = 94%]
Pressure (altimeter): 29.68 inches Hg (1005.0 mb)
Winds: from the E (100 degrees) at 7 MPH (6 knots; 3.1 m/s)
Visibility: 4 miles ( 7 km)
Ceiling: 900 feet AGL
Clouds: broken clouds at 900 feet AGL
Weather: RA  (moderate rain)

Forecast for: LIMC (MILANO/MALPENSA , IT)
Text: TAF LIMC 231700Z 2318/2424 01006KT 4000 BR BKN015 BKN040
Forecast period: 1800 UTC 23 April 2019 to 0000 UTC 25 April 2019
Forecast type: FROM: standard forecast or significant change
Winds: from the N (10 degrees) at 7 MPH (6 knots; 3.1 m/s)
Visibility: 2.49 miles (4.01 km)
Ceiling: 1500 feet AGL
Clouds: broken clouds at 1500 feet AGL
broken clouds at 4000 feet AGL
Weather: BR  (mist)
Text: TEMPO 2318/2412 RA
Forecast period: 1800 UTC 23 April 2019 to 1200 UTC 24 April 2019
Forecast type: TEMPORARY: The following changes expected for less than half the time period
Visibility: missing
Ceiling: unknown
Clouds: missing
Weather: RA  (moderate rain)
Text: TEMPO 2412/2421 TSRA
Forecast period: 1200 to 2100 UTC 24 April 2019
Forecast type: TEMPORARY: The following changes expected for less than half the time period
Visibility: missing
Ceiling: unknown
Clouds: missing
Weather: TSRA  (rain associated with thunderstorm(s))


 MAPA DO AEROPORTO


 INFORMAÇÕES DA PISTA

Pista 17L Tamanho da pista 12861 ft Largura da pista 197 ft
Elevação da pista 745 ft Ranhura da pista 3094 ft Proa da pista 170
Pista 35R Tamanho da pista 12861 ft Largura da pista 197 ft
Elevação da pista 691 ft Ranhura da pista 0 ft Proa da pista 350
Pista 17R Tamanho da pista 12861 ft Largura da pista 197 ft
Elevação da pista 764 ft Ranhura da pista 0 ft Proa da pista 170
Pista 35L Tamanho da pista 12861 ft Largura da pista 197 ft
Elevação da pista 696 ft Ranhura da pista 1329 ft Proa da pista 350

 FREQUÊNCIAS DO AEROPORTO

Tipo APP Nome MILANO APP Frequência 132.7 MHZ
Tipo ATIS Nome ATIS Frequência 120.025 MHZ
Tipo CLD Nome CLNC DEL Frequência 120.9 MHZ
Tipo DEP Nome MILANO DEP Frequência 126.75 MHZ
Tipo GND Nome GND Frequência 121.9 MHZ
Tipo TWR Nome TWR Frequência 119 MHZ

 AUXÍLIOS DE NAVEGAÇÃO PRÓXIMOS AO AEROPORTO

Tipo VOR-DME Nome Malpensa Frequência 111200 KHZ
Tipo NDB Nome Malpensa Frequência 364 KHZ